Greasewood, Arizona
Current Conditions -  °F | °C
As of 10:53 AM on Friday 28 Nov 2014 (Local Time) from KGUP Reporting Station
Clear Clear  
Wind Chill: 53°   Ceiling: Unl
Heat Index: 53°   Visibility: 10mi
Dew Point: 16°   Wind: 0mph
Humidity: 23%   Direction: NA
Pressure: 30.28"   Gusts: NA
Location:  35.6053°N, 109.458°W
Report Text: KGUP 281753Z AUTO 00000KT 10SM CLR 12/M09 A3028 RMK AO2 SLP220 T01171089 10117 21100 58007
Loading
Personal Weather Stations






























Interactive Weather Map New forecast layout! Learn more

10-Day Weather Forecast

Advertisements
Track Severe Weather on mobile